Franzen, Wisconsin
Current Conditions -  °F | °C
As of 8:55 PM on Sunday 23 Nov 2014 (Local Time) from KAIG Reporting Station
Moderate Fog Moderate Fog  
Wind Chill: 34°   Ceiling: 300
Heat Index: 38°   Visibility: 0.25mi
Dew Point: 38°   Wind: 6mph
Humidity: 100%   Direction: 100°E
Pressure: 29.27"   Gusts: NA
Location:  44.8179°N, 89.172°W
Report Text: KAIG 240255Z AUTO 10005KT 1/4SM FG OVC003 04/04 A2927 RMK AO2 T00350035
Loading
Personal Weather Stations






























Interactive Weather Map New forecast layout! Learn more

10-Day Weather Forecast

Advertisements
Track Severe Weather on mobile